createdAt,value
2022-12-12T00:02:00.715Z,99.96
2022-12-12T00:07:02.370Z,99.10
2022-12-12T00:12:05.337Z,99.34
2022-12-12T00:17:07.006Z,97.92
2022-12-12T00:22:09.175Z,97.28
2022-12-12T00:27:10.923Z,97.31
2022-12-12T00:32:12.592Z,96.40
2022-12-12T00:37:14.271Z,95.98
2022-12-12T00:42:16.784Z,96.74
2022-12-12T00:47:18.470Z,97.67
2022-12-12T00:52:20.261Z,97.05
2022-12-12T00:57:21.931Z,96.71
2022-12-12T01:02:28.073Z,97.20
2022-12-12T01:07:30.238Z,97.19
2022-12-12T01:12:32.095Z,96.76
2022-12-12T01:17:37.839Z,96.94
2022-12-12T01:22:39.526Z,96.88
2022-12-12T01:27:42.046Z,97.02
2022-12-12T01:32:43.695Z,96.88
2022-12-12T01:37:45.551Z,95.75
2022-12-12T01:42:48.050Z,94.93
2022-12-12T01:47:49.700Z,95.31
2022-12-12T01:52:51.390Z,94.88
2022-12-12T01:57:54.917Z,94.76
2022-12-12T02:02:57.084Z,94.90
2022-12-12T02:08:01.440Z,95.12
2022-12-12T02:13:08.095Z,95.73
2022-12-12T02:18:18.466Z,96.12
2022-12-12T02:24:05.496Z,95.69
2022-12-12T02:29:31.647Z,96.73
2022-12-12T02:35:00.686Z,97.38
2022-12-12T02:40:24.086Z,97.43
2022-12-12T02:45:31.666Z,97.38
2022-12-12T02:50:35.307Z,97.34
2022-12-12T02:55:37.137Z,97.82
2022-12-12T03:00:54.408Z,97.96
2022-12-12T03:06:23.797Z,98.22
2022-12-12T03:11:56.364Z,98.71
2022-12-12T03:16:57.981Z,99.39
2022-12-12T03:22:24.014Z,99.46
2022-12-12T03:28:05.256Z,98.94
2022-12-12T03:33:13.918Z,98.33
2022-12-12T03:38:26.758Z,98.84
2022-12-12T03:43:33.903Z,99.13
2022-12-12T03:48:45.815Z,97.91
2022-12-12T03:53:53.669Z,97.73
2022-12-12T03:59:15.022Z,97.73
2022-12-12T04:04:32.782Z,97.57
2022-12-12T04:09:53.333Z,96.57
2022-12-12T04:15:00.868Z,96.57
2022-12-12T04:20:35.499Z,96.82
2022-12-12T04:26:20.136Z,97.47
2022-12-12T04:31:27.117Z,97.45
2022-12-12T04:36:31.545Z,98.38
2022-12-12T04:41:37.252Z,99.09
2022-12-12T04:46:41.382Z,99.61
2022-12-12T04:51:47.349Z,99.86
2022-12-12T04:56:55.111Z,100.00
2022-12-12T05:02:18.046Z,100.00
2022-12-12T05:08:15.177Z,100.00
2022-12-12T05:13:19.306Z,100.00
2022-12-12T05:18:21.852Z,100.00
2022-12-12T05:23:23.525Z,100.00
2022-12-12T05:28:25.179Z,100.00
2022-12-12T05:33:26.835Z,99.03
2022-12-12T05:38:28.489Z,100.00
2022-12-12T05:43:30.467Z,99.98
2022-12-12T05:48:32.620Z,100.00
2022-12-12T05:53:42.012Z,100.00
2022-12-12T05:58:44.359Z,100.00
2022-12-12T06:03:46.141Z,100.00
2022-12-12T06:08:47.886Z,100.00
2022-12-12T06:13:49.556Z,100.00
2022-12-12T06:18:52.814Z,100.00
2022-12-12T06:23:54.684Z,100.00
2022-12-12T06:28:56.348Z,100.00
2022-12-12T06:33:58.021Z,100.00
2022-12-12T06:39:01.602Z,100.00
2022-12-12T06:44:03.336Z,100.00
2022-12-12T06:49:09.713Z,100.00
2022-12-12T06:54:16.186Z,100.00
2022-12-12T06:59:17.915Z,99.84
2022-12-12T07:04:20.470Z,99.77
2022-12-12T07:09:22.200Z,98.76
2022-12-12T07:14:23.872Z,98.03
2022-12-12T07:19:26.435Z,97.33
2022-12-12T07:24:28.102Z,96.89
2022-12-12T07:29:29.820Z,96.77
2022-12-12T07:34:32.597Z,96.68
2022-12-12T07:39:34.692Z,97.04
2022-12-12T07:44:36.400Z,97.17
2022-12-12T07:49:38.100Z,97.00
2022-12-12T07:54:39.811Z,96.19
2022-12-12T07:59:41.541Z,95.09
2022-12-12T08:04:43.238Z,94.54
2022-12-12T08:09:44.932Z,93.44
2022-12-12T08:14:46.760Z,93.60
2022-12-12T08:19:48.484Z,94.92
2022-12-12T08:24:50.386Z,95.21
2022-12-12T08:29:53.163Z,94.32
2022-12-12T08:34:58.573Z,92.16
2022-12-12T08:40:00.325Z,91.43
2022-12-12T08:45:02.077Z,90.80
2022-12-12T08:50:05.039Z,91.68
2022-12-12T08:55:06.968Z,92.23
2022-12-12T09:00:09.426Z,91.59
2022-12-12T09:05:11.490Z,91.61
2022-12-12T09:10:13.299Z,91.49
2022-12-12T09:15:15.421Z,90.98
2022-12-12T09:20:17.491Z,90.73
2022-12-12T09:25:19.479Z,90.17
2022-12-12T09:30:22.046Z,89.76
2022-12-12T09:35:23.712Z,89.95
2022-12-12T09:40:53.345Z,90.98
2022-12-12T09:45:55.847Z,88.37
2022-12-12T09:50:57.559Z,86.80
2022-12-12T09:56:02.089Z,87.79
2022-12-12T10:01:07.609Z,88.91
2022-12-12T10:06:36.369Z,88.17
2022-12-12T10:11:52.071Z,88.13
2022-12-12T10:16:58.287Z,88.23
2022-12-12T10:22:24.131Z,87.19
2022-12-12T10:27:26.152Z,86.98
2022-12-12T10:32:51.993Z,87.83
2022-12-12T10:38:29.652Z,87.67
2022-12-12T10:43:51.489Z,88.34
2022-12-12T10:48:54.260Z,88.58
2022-12-12T10:53:56.051Z,89.40
2022-12-12T10:59:01.955Z,88.78
2022-12-12T11:04:04.701Z,89.13
2022-12-12T11:09:17.670Z,89.16
2022-12-12T11:14:31.197Z,89.91
2022-12-12T11:19:38.369Z,90.30
2022-12-12T11:24:45.364Z,91.87
2022-12-12T11:29:51.553Z,93.01
2022-12-12T11:35:00.307Z,93.60
2022-12-12T11:40:02.419Z,94.02
2022-12-12T11:45:10.545Z,93.82
2022-12-12T11:50:22.901Z,95.45
2022-12-12T11:55:46.521Z,96.18
2022-12-12T12:00:58.348Z,97.16
2022-12-12T12:06:15.166Z,97.13
2022-12-12T12:11:25.104Z,96.79
2022-12-12T12:16:32.533Z,96.39
2022-12-12T12:21:56.182Z,96.92
2022-12-12T12:27:02.503Z,98.03
2022-12-12T12:32:18.731Z,97.50
2022-12-12T12:37:58.063Z,96.41
2022-12-12T12:43:17.667Z,95.65
2022-12-12T12:48:30.478Z,94.46
2022-12-12T12:53:35.764Z,94.37
2022-12-12T12:58:45.580Z,94.93
2022-12-12T13:03:58.758Z,96.51
2022-12-12T13:09:13.606Z,97.49
2022-12-12T13:14:45.802Z,96.84
2022-12-12T13:19:53.504Z,96.05
2022-12-12T13:25:22.949Z,96.54
2022-12-12T13:30:36.888Z,97.20
2022-12-12T13:35:51.128Z,97.13
2022-12-12T13:41:06.383Z,96.43
2022-12-12T13:46:27.330Z,95.09
2022-12-12T13:51:31.040Z,94.56
2022-12-12T13:56:57.609Z,93.67
2022-12-12T14:02:19.156Z,92.19
2022-12-12T14:07:25.678Z,91.64
2022-12-12T14:12:32.031Z,91.24
2022-12-12T14:17:42.867Z,90.49
2022-12-12T14:22:44.878Z,89.91
2022-12-12T14:27:49.335Z,89.62
2022-12-12T14:33:18.131Z,89.39
2022-12-12T14:38:41.455Z,89.30
2022-12-12T14:44:37.260Z,88.75
2022-12-12T14:49:17.407Z,88.36
2022-12-12T14:54:22.306Z,87.90
2022-12-12T14:59:29.591Z,87.65
2022-12-12T15:04:34.871Z,87.23
2022-12-12T15:09:39.868Z,88.69
2022-12-12T15:15:02.044Z,89.75
2022-12-12T15:20:17.459Z,90.34
2022-12-12T15:25:25.308Z,90.82
2022-12-12T15:30:45.593Z,91.08
2022-12-12T15:36:01.501Z,91.61
2022-12-12T15:41:11.183Z,92.67
2022-12-12T15:46:15.682Z,92.81
2022-12-12T15:51:24.593Z,92.94
2022-12-12T15:56:31.608Z,94.10
2022-12-12T16:01:33.415Z,94.13
2022-12-12T16:06:44.475Z,94.67
2022-12-12T16:11:50.305Z,94.74
2022-12-12T16:17:04.266Z,93.76
2022-12-12T16:22:31.436Z,93.59
2022-12-12T16:27:33.893Z,93.07
2022-12-12T16:32:36.049Z,92.98
2022-12-12T16:37:37.711Z,92.96
2022-12-12T16:42:39.462Z,92.55
2022-12-12T16:47:41.143Z,92.03
2022-12-12T16:52:42.892Z,92.20
2022-12-12T16:57:44.546Z,92.06
2022-12-12T17:02:46.408Z,92.37
2022-12-12T17:07:48.130Z,91.85
2022-12-12T17:12:51.175Z,91.93
2022-12-12T17:17:53.908Z,91.44
2022-12-12T17:22:56.130Z,91.71
2022-12-12T17:27:58.245Z,90.62
2022-12-12T17:33:18.215Z,90.07
2022-12-12T17:38:19.915Z,90.19
2022-12-12T17:43:22.175Z,90.30
2022-12-12T17:48:23.934Z,90.50
2022-12-12T17:53:25.989Z,89.85
2022-12-12T17:58:32.126Z,89.12
2022-12-12T18:03:33.830Z,88.46
2022-12-12T18:08:36.736Z,88.04
2022-12-12T18:13:39.503Z,88.00
2022-12-12T18:18:41.628Z,88.75
2022-12-12T18:23:43.695Z,88.41
2022-12-12T18:28:45.365Z,88.93
2022-12-12T18:33:47.345Z,89.20
2022-12-12T18:38:49.485Z,88.96
2022-12-12T18:43:51.168Z,89.66
2022-12-12T18:48:52.964Z,89.76
2022-12-12T18:53:59.832Z,89.58
2022-12-12T18:59:02.369Z,89.94
2022-12-12T19:04:11.702Z,90.63
2022-12-12T19:09:17.462Z,90.52
2022-12-12T19:14:19.227Z,90.87
2022-12-12T19:19:21.170Z,91.18
2022-12-12T19:24:22.845Z,90.67
2022-12-12T19:29:24.548Z,90.74
2022-12-12T19:34:26.299Z,91.03
2022-12-12T19:39:28.212Z,91.59
2022-12-12T19:44:29.951Z,91.62
2022-12-12T19:49:31.707Z,91.89
2022-12-12T19:54:33.364Z,91.31
2022-12-12T19:59:35.294Z,91.22
2022-12-12T20:04:39.370Z,89.88
2022-12-12T20:09:41.034Z,90.16
2022-12-12T20:14:42.717Z,89.63
2022-12-12T20:19:47.292Z,89.66
2022-12-12T20:24:49.045Z,89.74
2022-12-12T20:29:50.718Z,89.63
2022-12-12T20:34:53.057Z,89.44
2022-12-12T20:39:54.752Z,89.14
2022-12-12T20:44:56.399Z,88.91
2022-12-12T20:49:58.085Z,89.02
2022-12-12T20:54:59.791Z,89.56
2022-12-12T21:00:01.438Z,89.70
2022-12-12T21:05:05.619Z,90.75
2022-12-12T21:10:07.588Z,90.67
2022-12-12T21:15:09.627Z,90.38
2022-12-12T21:20:11.593Z,90.83
2022-12-12T21:25:13.566Z,91.11
2022-12-12T21:30:15.415Z,90.94
2022-12-12T21:35:17.254Z,90.83
2022-12-12T21:40:19.244Z,90.74
2022-12-12T21:45:20.926Z,90.95
2022-12-12T21:50:27.484Z,90.87
2022-12-12T21:55:32.157Z,90.41
2022-12-12T22:00:39.861Z,90.42
2022-12-12T22:05:41.544Z,89.98
2022-12-12T22:10:44.126Z,90.09
2022-12-12T22:15:56.499Z,89.83
2022-12-12T22:21:05.736Z,89.80
2022-12-12T22:26:23.709Z,89.71
2022-12-12T22:31:28.389Z,89.76
2022-12-12T22:36:40.137Z,89.68
2022-12-12T22:41:41.854Z,89.87
2022-12-12T22:46:45.402Z,89.87
2022-12-12T22:51:48.747Z,90.58
2022-12-12T22:56:50.824Z,90.17
2022-12-12T23:01:52.609Z,90.36
2022-12-12T23:06:54.313Z,90.53
2022-12-12T23:11:56.126Z,90.23
2022-12-12T23:16:57.824Z,90.29
2022-12-12T23:22:00.000Z,89.56
2022-12-12T23:27:02.071Z,89.77
2022-12-12T23:32:04.013Z,89.54
2022-12-12T23:37:05.743Z,89.43
2022-12-12T23:42:07.616Z,89.00
2022-12-12T23:47:09.295Z,89.08
2022-12-12T23:52:11.037Z,89.01
2022-12-12T23:57:12.730Z,89.01
